sensor_id;sensor_type;location;lat;lon;timestamp;temperature;humidity
42715;DHT22;28351;51.480;5.706;2023-02-04T00:01:18;7.90;99.90
42715;DHT22;28351;51.480;5.706;2023-02-04T00:03:44;7.90;99.90
42715;DHT22;28351;51.480;5.706;2023-02-04T00:06:09;7.90;99.90
42715;DHT22;28351;51.480;5.706;2023-02-04T00:08:35;7.80;99.90
42715;DHT22;28351;51.480;5.706;2023-02-04T00:11:02;7.90;99.90
42715;DHT22;28351;51.480;5.706;2023-02-04T00:13:27;7.80;99.90
42715;DHT22;28351;51.480;5.706;2023-02-04T00:15:53;7.80;99.90
42715;DHT22;28351;51.480;5.706;2023-02-04T00:18:19;7.80;99.90
42715;DHT22;28351;51.480;5.706;2023-02-04T00:20:44;7.80;99.90
42715;DHT22;28351;51.480;5.706;2023-02-04T00:23:10;7.80;99.90
42715;DHT22;28351;51.480;5.706;2023-02-04T00:25:36;7.70;99.90
42715;DHT22;28351;51.480;5.706;2023-02-04T00:28:04;7.70;99.90
42715;DHT22;28351;51.480;5.706;2023-02-04T00:30:30;7.70;99.90
42715;DHT22;28351;51.480;5.706;2023-02-04T00:32:56;7.70;99.90
42715;DHT22;28351;51.480;5.706;2023-02-04T00:35:22;7.70;99.90
42715;DHT22;28351;51.480;5.706;2023-02-04T00:37:48;7.60;99.90
42715;DHT22;28351;51.480;5.706;2023-02-04T00:40:20;7.60;99.90
42715;DHT22;28351;51.480;5.706;2023-02-04T00:42:45;7.60;99.90
42715;DHT22;28351;51.480;5.706;2023-02-04T00:45:12;7.50;99.90
42715;DHT22;28351;51.480;5.706;2023-02-04T00:47:37;7.50;99.90
42715;DHT22;28351;51.480;5.706;2023-02-04T00:50:04;7.60;99.90
42715;DHT22;28351;51.480;5.706;2023-02-04T00:52:29;7.60;99.90
42715;DHT22;28351;51.480;5.706;2023-02-04T00:54:55;7.60;99.90
42715;DHT22;28351;51.480;5.706;2023-02-04T00:57:21;7.60;99.90
42715;DHT22;28351;51.480;5.706;2023-02-04T00:59:46;7.60;99.90
42715;DHT22;28351;51.480;5.706;2023-02-04T01:02:12;7.60;99.90
42715;DHT22;28351;51.480;5.706;2023-02-04T01:04:37;7.50;99.90
42715;DHT22;28351;51.480;5.706;2023-02-04T01:07:03;7.50;99.90
42715;DHT22;28351;51.480;5.706;2023-02-04T01:09:29;7.40;99.90
42715;DHT22;28351;51.480;5.706;2023-02-04T01:11:54;7.40;99.90
42715;DHT22;28351;51.480;5.706;2023-02-04T01:14:20;7.40;99.90
42715;DHT22;28351;51.480;5.706;2023-02-04T01:16:46;7.40;99.90
42715;DHT22;28351;51.480;5.706;2023-02-04T01:19:13;7.40;99.90
42715;DHT22;28351;51.480;5.706;2023-02-04T01:21:39;7.30;99.90
42715;DHT22;28351;51.480;5.706;2023-02-04T01:24:06;7.30;99.90
42715;DHT22;28351;51.480;5.706;2023-02-04T01:26:32;7.20;99.90
42715;DHT22;28351;51.480;5.706;2023-02-04T01:28:57;7.10;99.90
42715;DHT22;28351;51.480;5.706;2023-02-04T01:31:23;7.00;99.90
42715;DHT22;28351;51.480;5.706;2023-02-04T01:33:49;6.90;99.90
42715;DHT22;28351;51.480;5.706;2023-02-04T01:36:14;6.80;99.90
42715;DHT22;28351;51.480;5.706;2023-02-04T01:38:46;6.80;99.90
42715;DHT22;28351;51.480;5.706;2023-02-04T01:41:12;6.70;99.90
42715;DHT22;28351;51.480;5.706;2023-02-04T01:43:37;6.60;99.90
42715;DHT22;28351;51.480;5.706;2023-02-04T01:46:03;6.60;99.90
42715;DHT22;28351;51.480;5.706;2023-02-04T01:48:29;6.50;99.90
42715;DHT22;28351;51.480;5.706;2023-02-04T01:51:07;6.40;99.90
42715;DHT22;28351;51.480;5.706;2023-02-04T01:53:34;6.30;99.90
42715;DHT22;28351;51.480;5.706;2023-02-04T01:56:16;6.30;99.90
42715;DHT22;28351;51.480;5.706;2023-02-04T01:58:42;6.30;99.90
42715;DHT22;28351;51.480;5.706;2023-02-04T02:01:13;6.30;99.90
42715;DHT22;28351;51.480;5.706;2023-02-04T02:03:38;6.30;99.90
42715;DHT22;28351;51.480;5.706;2023-02-04T02:06:06;6.30;99.90
42715;DHT22;28351;51.480;5.706;2023-02-04T02:08:34;6.20;99.90
42715;DHT22;28351;51.480;5.706;2023-02-04T02:11:03;6.10;99.90
42715;DHT22;28351;51.480;5.706;2023-02-04T02:13:29;6.10;99.90
42715;DHT22;28351;51.480;5.706;2023-02-04T02:15:55;6.10;99.90
42715;DHT22;28351;51.480;5.706;2023-02-04T02:18:21;6.00;99.90
42715;DHT22;28351;51.480;5.706;2023-02-04T02:20:46;6.00;99.90
42715;DHT22;28351;51.480;5.706;2023-02-04T02:23:26;5.90;99.90
42715;DHT22;28351;51.480;5.706;2023-02-04T02:25:53;5.90;99.90
42715;DHT22;28351;51.480;5.706;2023-02-04T02:28:21;5.80;99.90
42715;DHT22;28351;51.480;5.706;2023-02-04T02:30:47;5.80;99.90
42715;DHT22;28351;51.480;5.706;2023-02-04T02:33:15;5.80;99.90
42715;DHT22;28351;51.480;5.706;2023-02-04T02:35:43;5.80;99.90
42715;DHT22;28351;51.480;5.706;2023-02-04T02:38:10;5.80;99.90
42715;DHT22;28351;51.480;5.706;2023-02-04T02:40:38;5.90;99.90
42715;DHT22;28351;51.480;5.706;2023-02-04T02:43:05;5.80;99.90
42715;DHT22;28351;51.480;5.706;2023-02-04T02:45:32;5.90;99.90
42715;DHT22;28351;51.480;5.706;2023-02-04T02:48:00;6.00;99.90
42715;DHT22;28351;51.480;5.706;2023-02-04T02:50:29;6.10;99.90
42715;DHT22;28351;51.480;5.706;2023-02-04T02:52:56;6.10;99.90
42715;DHT22;28351;51.480;5.706;2023-02-04T02:55:24;6.10;99.90
42715;DHT22;28351;51.480;5.706;2023-02-04T02:57:51;6.20;99.90
42715;DHT22;28351;51.480;5.706;2023-02-04T03:00:28;6.10;99.90
42715;DHT22;28351;51.480;5.706;2023-02-04T03:03:04;6.00;99.90
42715;DHT22;28351;51.480;5.706;2023-02-04T03:05:33;6.00;99.90
42715;DHT22;28351;51.480;5.706;2023-02-04T03:07:59;5.90;99.90
42715;DHT22;28351;51.480;5.706;2023-02-04T03:10:25;5.90;99.90
42715;DHT22;28351;51.480;5.706;2023-02-04T03:12:51;5.80;99.90
42715;DHT22;28351;51.480;5.706;2023-02-04T03:15:17;5.90;99.90
42715;DHT22;28351;51.480;5.706;2023-02-04T03:17:43;5.80;99.90
42715;DHT22;28351;51.480;5.706;2023-02-04T03:20:11;5.80;99.90
42715;DHT22;28351;51.480;5.706;2023-02-04T03:22:37;5.70;99.90
42715;DHT22;28351;51.480;5.706;2023-02-04T03:25:03;5.70;99.90
42715;DHT22;28351;51.480;5.706;2023-02-04T03:27:29;5.60;99.90
42715;DHT22;28351;51.480;5.706;2023-02-04T03:29:54;5.60;99.90
42715;DHT22;28351;51.480;5.706;2023-02-04T03:32:20;5.50;99.90
42715;DHT22;28351;51.480;5.706;2023-02-04T03:34:46;5.50;99.90
42715;DHT22;28351;51.480;5.706;2023-02-04T03:37:11;5.40;99.90
42715;DHT22;28351;51.480;5.706;2023-02-04T03:39:37;5.50;99.90
42715;DHT22;28351;51.480;5.706;2023-02-04T03:42:02;5.50;99.90
42715;DHT22;28351;51.480;5.706;2023-02-04T03:44:28;5.60;99.90
42715;DHT22;28351;51.480;5.706;2023-02-04T03:46:54;5.60;99.90
42715;DHT22;28351;51.480;5.706;2023-02-04T03:49:21;5.70;99.90
42715;DHT22;28351;51.480;5.706;2023-02-04T03:51:47;5.70;99.90
42715;DHT22;28351;51.480;5.706;2023-02-04T03:54:12;5.80;99.90
42715;DHT22;28351;51.480;5.706;2023-02-04T03:56:38;5.90;99.90
42715;DHT22;28351;51.480;5.706;2023-02-04T03:59:04;5.90;99.90
42715;DHT22;28351;51.480;5.706;2023-02-04T04:01:29;6.00;99.90
42715;DHT22;28351;51.480;5.706;2023-02-04T04:03:55;6.10;99.90
42715;DHT22;28351;51.480;5.706;2023-02-04T04:06:20;6.10;99.90
42715;DHT22;28351;51.480;5.706;2023-02-04T04:08:46;6.10;99.90
42715;DHT22;28351;51.480;5.706;2023-02-04T04:11:12;6.10;99.90
42715;DHT22;28351;51.480;5.706;2023-02-04T04:13:37;6.10;99.90
42715;DHT22;28351;51.480;5.706;2023-02-04T04:16:03;6.00;99.90
42715;DHT22;28351;51.480;5.706;2023-02-04T04:18:29;6.00;99.90
42715;DHT22;28351;51.480;5.706;2023-02-04T04:20:57;5.90;99.90
42715;DHT22;28351;51.480;5.706;2023-02-04T04:23:23;5.90;99.90
42715;DHT22;28351;51.480;5.706;2023-02-04T04:25:48;5.80;99.90
42715;DHT22;28351;51.480;5.706;2023-02-04T04:28:16;5.70;99.90
42715;DHT22;28351;51.480;5.706;2023-02-04T04:30:42;5.60;99.90
42715;DHT22;28351;51.480;5.706;2023-02-04T04:33:08;5.50;99.90
42715;DHT22;28351;51.480;5.706;2023-02-04T04:35:33;5.40;99.90
42715;DHT22;28351;51.480;5.706;2023-02-04T04:38:00;5.30;99.90
42715;DHT22;28351;51.480;5.706;2023-02-04T04:40:26;5.30;99.90
42715;DHT22;28351;51.480;5.706;2023-02-04T04:42:54;5.30;99.90
42715;DHT22;28351;51.480;5.706;2023-02-04T04:45:20;5.30;99.90
42715;DHT22;28351;51.480;5.706;2023-02-04T04:47:46;5.30;99.90
42715;DHT22;28351;51.480;5.706;2023-02-04T04:50:15;5.30;99.90
42715;DHT22;28351;51.480;5.706;2023-02-04T04:52:40;5.20;99.90
42715;DHT22;28351;51.480;5.706;2023-02-04T04:55:07;5.30;99.90
42715;DHT22;28351;51.480;5.706;2023-02-04T04:57:33;5.40;99.90
42715;DHT22;28351;51.480;5.706;2023-02-04T04:59:58;5.40;99.90
42715;DHT22;28351;51.480;5.706;2023-02-04T05:02:24;5.40;99.90
42715;DHT22;28351;51.480;5.706;2023-02-04T05:04:49;5.40;99.90
42715;DHT22;28351;51.480;5.706;2023-02-04T05:07:15;5.50;99.90
42715;DHT22;28351;51.480;5.706;2023-02-04T05:09:41;5.40;99.90
42715;DHT22;28351;51.480;5.706;2023-02-04T05:12:06;5.50;99.90
42715;DHT22;28351;51.480;5.706;2023-02-04T05:14:32;5.60;99.90
42715;DHT22;28351;51.480;5.706;2023-02-04T05:16:58;5.70;99.90
42715;DHT22;28351;51.480;5.706;2023-02-04T05:19:23;5.70;99.90
42715;DHT22;28351;51.480;5.706;2023-02-04T05:21:49;5.80;99.90
42715;DHT22;28351;51.480;5.706;2023-02-04T05:24:14;5.80;99.90
42715;DHT22;28351;51.480;5.706;2023-02-04T05:26:40;5.90;99.90
42715;DHT22;28351;51.480;5.706;2023-02-04T05:29:06;5.90;99.90
42715;DHT22;28351;51.480;5.706;2023-02-04T05:31:31;5.90;99.90
42715;DHT22;28351;51.480;5.706;2023-02-04T05:33:58;6.00;99.90
42715;DHT22;28351;51.480;5.706;2023-02-04T05:36:24;6.00;99.90
42715;DHT22;28351;51.480;5.706;2023-02-04T05:38:49;6.10;99.90
42715;DHT22;28351;51.480;5.706;2023-02-04T05:41:15;6.10;99.90
42715;DHT22;28351;51.480;5.706;2023-02-04T05:43:40;6.10;99.90
42715;DHT22;28351;51.480;5.706;2023-02-04T05:46:07;6.10;99.90
42715;DHT22;28351;51.480;5.706;2023-02-04T05:48:32;6.20;99.90
42715;DHT22;28351;51.480;5.706;2023-02-04T05:50:58;6.20;99.90
42715;DHT22;28351;51.480;5.706;2023-02-04T05:53:24;6.20;99.90
42715;DHT22;28351;51.480;5.706;2023-02-04T05:55:49;6.20;99.90
42715;DHT22;28351;51.480;5.706;2023-02-04T05:58:15;6.20;99.90
42715;DHT22;28351;51.480;5.706;2023-02-04T06:00:40;6.10;99.90
42715;DHT22;28351;51.480;5.706;2023-02-04T06:03:06;6.10;99.90
42715;DHT22;28351;51.480;5.706;2023-02-04T06:05:31;6.10;99.90
42715;DHT22;28351;51.480;5.706;2023-02-04T06:07:57;6.00;99.90
42715;DHT22;28351;51.480;5.706;2023-02-04T06:10:23;6.00;99.90
42715;DHT22;28351;51.480;5.706;2023-02-04T06:12:48;6.00;99.90
42715;DHT22;28351;51.480;5.706;2023-02-04T06:15:14;5.90;99.90
42715;DHT22;28351;51.480;5.706;2023-02-04T06:17:40;5.90;99.90
42715;DHT22;28351;51.480;5.706;2023-02-04T06:20:06;5.90;99.90
42715;DHT22;28351;51.480;5.706;2023-02-04T06:22:32;5.90;99.90
42715;DHT22;28351;51.480;5.706;2023-02-04T06:24:57;6.00;99.90
42715;DHT22;28351;51.480;5.706;2023-02-04T06:27:23;6.00;99.90
42715;DHT22;28351;51.480;5.706;2023-02-04T06:29:50;6.10;99.90
42715;DHT22;28351;51.480;5.706;2023-02-04T06:32:16;6.10;99.90
42715;DHT22;28351;51.480;5.706;2023-02-04T06:34:42;6.20;99.90
42715;DHT22;28351;51.480;5.706;2023-02-04T06:37:07;6.20;99.90
42715;DHT22;28351;51.480;5.706;2023-02-04T06:39:33;6.10;99.90
42715;DHT22;28351;51.480;5.706;2023-02-04T06:41:58;6.20;99.90
42715;DHT22;28351;51.480;5.706;2023-02-04T06:44:24;6.20;99.90
42715;DHT22;28351;51.480;5.706;2023-02-04T06:46:50;6.20;99.90
42715;DHT22;28351;51.480;5.706;2023-02-04T06:49:15;6.20;99.90
42715;DHT22;28351;51.480;5.706;2023-02-04T06:51:41;6.10;99.90
42715;DHT22;28351;51.480;5.706;2023-02-04T06:54:07;6.10;99.90
42715;DHT22;28351;51.480;5.706;2023-02-04T06:56:32;6.10;99.90
42715;DHT22;28351;51.480;5.706;2023-02-04T06:58:58;6.10;99.90
42715;DHT22;28351;51.480;5.706;2023-02-04T07:01:23;6.10;99.90
42715;DHT22;28351;51.480;5.706;2023-02-04T07:03:49;6.10;99.90
42715;DHT22;28351;51.480;5.706;2023-02-04T07:06:15;6.10;99.90
42715;DHT22;28351;51.480;5.706;2023-02-04T07:08:44;6.10;99.90
42715;DHT22;28351;51.480;5.706;2023-02-04T07:11:11;6.10;99.90
42715;DHT22;28351;51.480;5.706;2023-02-04T07:13:37;6.10;99.90
42715;DHT22;28351;51.480;5.706;2023-02-04T07:16:03;6.10;99.90
42715;DHT22;28351;51.480;5.706;2023-02-04T07:18:28;6.10;99.90
42715;DHT22;28351;51.480;5.706;2023-02-04T07:21:03;6.10;99.90
42715;DHT22;28351;51.480;5.706;2023-02-04T07:23:29;6.10;99.90
42715;DHT22;28351;51.480;5.706;2023-02-04T07:25:54;6.20;99.90
42715;DHT22;28351;51.480;5.706;2023-02-04T07:28:22;6.20;99.90
42715;DHT22;28351;51.480;5.706;2023-02-04T07:30:47;6.20;99.90
42715;DHT22;28351;51.480;5.706;2023-02-04T07:33:13;6.20;99.90
42715;DHT22;28351;51.480;5.706;2023-02-04T07:35:38;6.20;99.90
42715;DHT22;28351;51.480;5.706;2023-02-04T07:38:04;6.30;99.90
42715;DHT22;28351;51.480;5.706;2023-02-04T07:40:30;6.20;99.90
42715;DHT22;28351;51.480;5.706;2023-02-04T07:42:55;6.30;99.90
42715;DHT22;28351;51.480;5.706;2023-02-04T07:45:24;6.30;99.90
42715;DHT22;28351;51.480;5.706;2023-02-04T07:47:50;6.30;99.90
42715;DHT22;28351;51.480;5.706;2023-02-04T07:50:15;6.40;99.90
42715;DHT22;28351;51.480;5.706;2023-02-04T07:52:41;6.40;99.90
42715;DHT22;28351;51.480;5.706;2023-02-04T07:55:07;6.40;99.90
42715;DHT22;28351;51.480;5.706;2023-02-04T07:57:33;6.40;99.90
42715;DHT22;28351;51.480;5.706;2023-02-04T07:59:59;6.50;99.90
42715;DHT22;28351;51.480;5.706;2023-02-04T08:02:25;6.50;99.90
42715;DHT22;28351;51.480;5.706;2023-02-04T08:04:51;6.60;99.90
42715;DHT22;28351;51.480;5.706;2023-02-04T08:07:16;6.50;99.90
42715;DHT22;28351;51.480;5.706;2023-02-04T08:09:42;6.60;99.90
42715;DHT22;28351;51.480;5.706;2023-02-04T08:12:07;6.60;99.90
42715;DHT22;28351;51.480;5.706;2023-02-04T08:14:33;6.70;99.90
42715;DHT22;28351;51.480;5.706;2023-02-04T08:16:59;6.70;99.90
42715;DHT22;28351;51.480;5.706;2023-02-04T08:19:24;6.80;99.90
42715;DHT22;28351;51.480;5.706;2023-02-04T08:21:50;6.80;99.90
42715;DHT22;28351;51.480;5.706;2023-02-04T08:24:16;6.80;99.90
42715;DHT22;28351;51.480;5.706;2023-02-04T08:26:43;6.90;99.90
42715;DHT22;28351;51.480;5.706;2023-02-04T08:29:09;6.90;99.90
42715;DHT22;28351;51.480;5.706;2023-02-04T08:31:35;6.90;99.90
42715;DHT22;28351;51.480;5.706;2023-02-04T08:34:05;6.90;99.90
42715;DHT22;28351;51.480;5.706;2023-02-04T08:36:31;6.90;99.90
42715;DHT22;28351;51.480;5.706;2023-02-04T08:38:57;7.00;99.90
42715;DHT22;28351;51.480;5.706;2023-02-04T08:41:22;6.90;99.90
42715;DHT22;28351;51.480;5.706;2023-02-04T08:43:48;7.10;99.90
42715;DHT22;28351;51.480;5.706;2023-02-04T08:46:14;7.10;99.90
42715;DHT22;28351;51.480;5.706;2023-02-04T08:48:39;7.10;99.90
42715;DHT22;28351;51.480;5.706;2023-02-04T08:51:05;7.20;99.90
42715;DHT22;28351;51.480;5.706;2023-02-04T08:53:30;7.30;99.90
42715;DHT22;28351;51.480;5.706;2023-02-04T08:55:56;7.40;99.90
42715;DHT22;28351;51.480;5.706;2023-02-04T08:58:22;7.40;99.90
42715;DHT22;28351;51.480;5.706;2023-02-04T09:00:47;7.50;99.90
42715;DHT22;28351;51.480;5.706;2023-02-04T09:03:15;7.50;99.90
42715;DHT22;28351;51.480;5.706;2023-02-04T09:05:41;7.60;99.90
42715;DHT22;28351;51.480;5.706;2023-02-04T09:08:07;7.60;99.90
42715;DHT22;28351;51.480;5.706;2023-02-04T09:10:32;7.60;99.90
42715;DHT22;28351;51.480;5.706;2023-02-04T09:12:58;7.70;99.90
42715;DHT22;28351;51.480;5.706;2023-02-04T09:15:26;7.80;99.90
42715;DHT22;28351;51.480;5.706;2023-02-04T09:17:52;7.80;99.90
42715;DHT22;28351;51.480;5.706;2023-02-04T09:20:19;7.90;99.90
42715;DHT22;28351;51.480;5.706;2023-02-04T09:22:46;8.00;99.90
42715;DHT22;28351;51.480;5.706;2023-02-04T09:25:14;8.00;99.90
42715;DHT22;28351;51.480;5.706;2023-02-04T09:27:40;8.10;99.90
42715;DHT22;28351;51.480;5.706;2023-02-04T09:30:06;8.10;99.90
42715;DHT22;28351;51.480;5.706;2023-02-04T09:32:31;8.20;99.90
42715;DHT22;28351;51.480;5.706;2023-02-04T09:34:57;8.30;99.90
42715;DHT22;28351;51.480;5.706;2023-02-04T09:37:22;8.30;99.90
42715;DHT22;28351;51.480;5.706;2023-02-04T09:39:51;8.40;99.90
42715;DHT22;28351;51.480;5.706;2023-02-04T09:42:17;8.50;99.90
42715;DHT22;28351;51.480;5.706;2023-02-04T09:44:43;8.40;99.90
42715;DHT22;28351;51.480;5.706;2023-02-04T09:47:10;8.60;99.90
42715;DHT22;28351;51.480;5.706;2023-02-04T09:49:37;8.70;99.90
42715;DHT22;28351;51.480;5.706;2023-02-04T09:52:03;8.80;99.90
42715;DHT22;28351;51.480;5.706;2023-02-04T09:54:28;8.80;99.90
42715;DHT22;28351;51.480;5.706;2023-02-04T09:56:54;8.90;99.90
42715;DHT22;28351;51.480;5.706;2023-02-04T09:59:22;8.90;99.90
42715;DHT22;28351;51.480;5.706;2023-02-04T10:01:59;8.90;99.90
42715;DHT22;28351;51.480;5.706;2023-02-04T10:04:25;9.00;99.90
42715;DHT22;28351;51.480;5.706;2023-02-04T10:06:51;9.00;99.90
42715;DHT22;28351;51.480;5.706;2023-02-04T10:09:17;9.00;99.90
42715;DHT22;28351;51.480;5.706;2023-02-04T10:11:46;9.10;99.90
42715;DHT22;28351;51.480;5.706;2023-02-04T10:14:18;9.10;99.90
42715;DHT22;28351;51.480;5.706;2023-02-04T10:16:55;9.10;99.90
42715;DHT22;28351;51.480;5.706;2023-02-04T10:19:22;9.20;99.90
42715;DHT22;28351;51.480;5.706;2023-02-04T10:21:48;9.30;99.90
42715;DHT22;28351;51.480;5.706;2023-02-04T10:24:16;9.50;99.90
42715;DHT22;28351;51.480;5.706;2023-02-04T10:26:43;9.60;99.90
42715;DHT22;28351;51.480;5.706;2023-02-04T10:29:17;9.70;99.90
42715;DHT22;28351;51.480;5.706;2023-02-04T10:31:46;9.90;99.90
42715;DHT22;28351;51.480;5.706;2023-02-04T10:34:23;9.90;99.90
42715;DHT22;28351;51.480;5.706;2023-02-04T10:36:56;10.00;99.90
42715;DHT22;28351;51.480;5.706;2023-02-04T10:39:27;10.00;99.90
42715;DHT22;28351;51.480;5.706;2023-02-04T10:41:58;10.20;99.90
42715;DHT22;28351;51.480;5.706;2023-02-04T10:44:26;10.30;99.90
42715;DHT22;28351;51.480;5.706;2023-02-04T10:49:54;10.50;99.90
42715;DHT22;28351;51.480;5.706;2023-02-04T10:52:21;10.60;99.90
42715;DHT22;28351;51.480;5.706;2023-02-04T10:54:48;10.70;99.90
42715;DHT22;28351;51.480;5.706;2023-02-04T10:57:23;10.60;99.90
42715;DHT22;28351;51.480;5.706;2023-02-04T10:59:53;10.50;99.90
42715;DHT22;28351;51.480;5.706;2023-02-04T11:02:30;10.40;99.90
42715;DHT22;28351;51.480;5.706;2023-02-04T11:04:56;10.40;99.90
42715;DHT22;28351;51.480;5.706;2023-02-04T11:07:22;10.40;99.90
42715;DHT22;28351;51.480;5.706;2023-02-04T11:09:48;10.40;99.90
42715;DHT22;28351;51.480;5.706;2023-02-04T11:12:42;10.60;99.90
42715;DHT22;28351;51.480;5.706;2023-02-04T11:20:43;11.00;99.90
42715;DHT22;28351;51.480;5.706;2023-02-04T11:23:33;10.90;99.90
42715;DHT22;28351;51.480;5.706;2023-02-04T11:26:08;11.30;99.90
42715;DHT22;28351;51.480;5.706;2023-02-04T11:33:48;12.10;99.90
42715;DHT22;28351;51.480;5.706;2023-02-04T11:36:14;12.30;99.90
42715;DHT22;28351;51.480;5.706;2023-02-04T11:38:48;12.40;99.90
42715;DHT22;28351;51.480;5.706;2023-02-04T11:41:26;12.50;99.90
42715;DHT22;28351;51.480;5.706;2023-02-04T11:43:54;12.30;99.90
42715;DHT22;28351;51.480;5.706;2023-02-04T11:46:22;11.90;99.90
42715;DHT22;28351;51.480;5.706;2023-02-04T11:48:57;11.90;99.90
42715;DHT22;28351;51.480;5.706;2023-02-04T11:51:31;11.60;99.90
42715;DHT22;28351;51.480;5.706;2023-02-04T11:53:58;11.70;99.90
42715;DHT22;28351;51.480;5.706;2023-02-04T11:56:27;11.50;99.90
42715;DHT22;28351;51.480;5.706;2023-02-04T11:58:55;11.60;99.90
42715;DHT22;28351;51.480;5.706;2023-02-04T12:01:30;11.80;99.90
42715;DHT22;28351;51.480;5.706;2023-02-04T12:03:59;11.80;99.90
42715;DHT22;28351;51.480;5.706;2023-02-04T12:06:26;12.00;99.90
42715;DHT22;28351;51.480;5.706;2023-02-04T12:09:25;12.20;99.90
42715;DHT22;28351;51.480;5.706;2023-02-04T12:11:54;13.00;99.90
42715;DHT22;28351;51.480;5.706;2023-02-04T12:14:20;14.90;99.90
42715;DHT22;28351;51.480;5.706;2023-02-04T12:16:50;16.00;99.90
42715;DHT22;28351;51.480;5.706;2023-02-04T12:19:16;15.50;99.90
42715;DHT22;28351;51.480;5.706;2023-02-04T12:21:42;15.60;99.90
42715;DHT22;28351;51.480;5.706;2023-02-04T12:24:08;16.10;99.90
42715;DHT22;28351;51.480;5.706;2023-02-04T12:26:37;15.30;99.90
42715;DHT22;28351;51.480;5.706;2023-02-04T12:29:14;14.60;99.90
42715;DHT22;28351;51.480;5.706;2023-02-04T12:31:43;13.90;99.90
42715;DHT22;28351;51.480;5.706;2023-02-04T12:34:08;13.20;99.90
42715;DHT22;28351;51.480;5.706;2023-02-04T12:36:42;13.20;99.90
42715;DHT22;28351;51.480;5.706;2023-02-04T12:39:08;13.00;99.90
42715;DHT22;28351;51.480;5.706;2023-02-04T12:41:35;13.20;99.90
42715;DHT22;28351;51.480;5.706;2023-02-04T12:44:03;13.10;99.90
42715;DHT22;28351;51.480;5.706;2023-02-04T12:46:37;13.10;99.90
42715;DHT22;28351;51.480;5.706;2023-02-04T12:49:10;12.80;99.90
42715;DHT22;28351;51.480;5.706;2023-02-04T12:51:35;12.20;99.90
42715;DHT22;28351;51.480;5.706;2023-02-04T12:54:01;12.10;99.90
42715;DHT22;28351;51.480;5.706;2023-02-04T12:56:27;12.10;99.90
42715;DHT22;28351;51.480;5.706;2023-02-04T12:58:52;12.00;99.90
42715;DHT22;28351;51.480;5.706;2023-02-04T13:01:18;11.80;99.90
42715;DHT22;28351;51.480;5.706;2023-02-04T13:03:43;11.60;99.90
42715;DHT22;28351;51.480;5.706;2023-02-04T13:06:09;11.50;99.90
42715;DHT22;28351;51.480;5.706;2023-02-04T13:08:35;11.70;99.90
42715;DHT22;28351;51.480;5.706;2023-02-04T13:11:00;11.90;99.90
42715;DHT22;28351;51.480;5.706;2023-02-04T13:13:26;12.00;99.90
42715;DHT22;28351;51.480;5.706;2023-02-04T13:15:51;11.90;99.90
42715;DHT22;28351;51.480;5.706;2023-02-04T13:18:17;11.90;99.90
42715;DHT22;28351;51.480;5.706;2023-02-04T13:20:43;11.80;99.90
42715;DHT22;28351;51.480;5.706;2023-02-04T13:23:10;11.70;99.90
42715;DHT22;28351;51.480;5.706;2023-02-04T13:25:37;11.80;99.90
42715;DHT22;28351;51.480;5.706;2023-02-04T13:28:02;11.70;99.90
42715;DHT22;28351;51.480;5.706;2023-02-04T13:30:28;11.70;99.90
42715;DHT22;28351;51.480;5.706;2023-02-04T13:32:53;11.70;99.90
42715;DHT22;28351;51.480;5.706;2023-02-04T13:35:19;12.10;99.90
42715;DHT22;28351;51.480;5.706;2023-02-04T13:37:45;12.50;99.90
42715;DHT22;28351;51.480;5.706;2023-02-04T13:40:13;12.20;99.90
42715;DHT22;28351;51.480;5.706;2023-02-04T13:42:39;11.80;99.90
42715;DHT22;28351;51.480;5.706;2023-02-04T13:45:05;11.80;99.90
42715;DHT22;28351;51.480;5.706;2023-02-04T13:47:32;11.80;99.90
42715;DHT22;28351;51.480;5.706;2023-02-04T13:50:04;11.90;99.90
42715;DHT22;28351;51.480;5.706;2023-02-04T13:52:33;11.90;99.90
42715;DHT22;28351;51.480;5.706;2023-02-04T13:54:59;12.10;99.90
42715;DHT22;28351;51.480;5.706;2023-02-04T13:57:25;12.50;99.90
42715;DHT22;28351;51.480;5.706;2023-02-04T13:59:50;13.10;99.90
42715;DHT22;28351;51.480;5.706;2023-02-04T14:02:16;14.20;99.90
42715;DHT22;28351;51.480;5.706;2023-02-04T14:04:41;14.90;99.90
42715;DHT22;28351;51.480;5.706;2023-02-04T14:07:08;14.90;99.90
42715;DHT22;28351;51.480;5.706;2023-02-04T14:09:34;14.10;99.90
42715;DHT22;28351;51.480;5.706;2023-02-04T14:11:59;14.00;99.90
42715;DHT22;28351;51.480;5.706;2023-02-04T14:14:25;15.40;99.90
42715;DHT22;28351;51.480;5.706;2023-02-04T14:16:50;15.30;99.90
42715;DHT22;28351;51.480;5.706;2023-02-04T14:19:16;14.80;99.90
42715;DHT22;28351;51.480;5.706;2023-02-04T14:21:41;14.20;99.90
42715;DHT22;28351;51.480;5.706;2023-02-04T14:24:07;13.70;99.90
42715;DHT22;28351;51.480;5.706;2023-02-04T14:26:32;13.30;99.90
42715;DHT22;28351;51.480;5.706;2023-02-04T14:28:58;13.20;99.90
42715;DHT22;28351;51.480;5.706;2023-02-04T14:31:23;12.90;99.90
42715;DHT22;28351;51.480;5.706;2023-02-04T14:33:49;12.70;99.90
42715;DHT22;28351;51.480;5.706;2023-02-04T14:36:15;12.70;99.90
42715;DHT22;28351;51.480;5.706;2023-02-04T14:38:40;13.90;99.90
42715;DHT22;28351;51.480;5.706;2023-02-04T14:41:06;15.50;99.90
42715;DHT22;28351;51.480;5.706;2023-02-04T14:43:31;16.10;99.90
42715;DHT22;28351;51.480;5.706;2023-02-04T14:46:03;16.50;99.90
42715;DHT22;28351;51.480;5.706;2023-02-04T14:48:29;15.00;99.90
42715;DHT22;28351;51.480;5.706;2023-02-04T14:50:54;13.80;99.90
42715;DHT22;28351;51.480;5.706;2023-02-04T14:53:21;13.20;99.90
42715;DHT22;28351;51.480;5.706;2023-02-04T14:55:47;12.80;99.90
42715;DHT22;28351;51.480;5.706;2023-02-04T14:58:12;12.40;99.90
42715;DHT22;28351;51.480;5.706;2023-02-04T15:00:38;12.20;99.90
42715;DHT22;28351;51.480;5.706;2023-02-04T15:03:04;12.00;99.90
42715;DHT22;28351;51.480;5.706;2023-02-04T15:05:30;11.70;99.90
42715;DHT22;28351;51.480;5.706;2023-02-04T15:07:56;11.60;99.90
42715;DHT22;28351;51.480;5.706;2023-02-04T15:10:21;11.70;99.90
42715;DHT22;28351;51.480;5.706;2023-02-04T15:12:50;11.70;99.90
42715;DHT22;28351;51.480;5.706;2023-02-04T15:15:16;11.60;99.90
42715;DHT22;28351;51.480;5.706;2023-02-04T15:17:43;11.50;99.90
42715;DHT22;28351;51.480;5.706;2023-02-04T15:20:09;11.50;99.90
42715;DHT22;28351;51.480;5.706;2023-02-04T15:22:35;11.50;99.90
42715;DHT22;28351;51.480;5.706;2023-02-04T15:25:01;11.40;99.90
42715;DHT22;28351;51.480;5.706;2023-02-04T15:27:29;11.30;99.90
42715;DHT22;28351;51.480;5.706;2023-02-04T15:29:56;11.30;99.90
42715;DHT22;28351;51.480;5.706;2023-02-04T15:32:23;11.20;99.90
42715;DHT22;28351;51.480;5.706;2023-02-04T15:34:51;11.20;99.90
42715;DHT22;28351;51.480;5.706;2023-02-04T15:37:17;11.20;99.90
42715;DHT22;28351;51.480;5.706;2023-02-04T15:39:43;11.00;99.90
42715;DHT22;28351;51.480;5.706;2023-02-04T15:42:09;11.00;99.90
42715;DHT22;28351;51.480;5.706;2023-02-04T15:44:35;10.80;99.90
42715;DHT22;28351;51.480;5.706;2023-02-04T15:47:01;10.80;99.90
42715;DHT22;28351;51.480;5.706;2023-02-04T15:49:26;10.80;99.90
42715;DHT22;28351;51.480;5.706;2023-02-04T15:51:52;10.70;99.90